Map

Track Data

SID SEASON NUMBER BASIN SUBBASIN NAME ISO_TIME NATURE LAT LON WMO_WIND WMO_PRES WMO_AGENCY TRACK_TYPE DIST2LAND LANDFALL IFLAG USA_AGENCY USA_ATCF_ID USA_LAT USA_LON USA_RECORD USA_STATUS USA_WIND USA_PRES USA_SSHS USA_R34_NE USA_R34_SE USA_R34_SW USA_R34_NW USA_R50_NE USA_R50_SE USA_R50_SW USA_R50_NW USA_R64_NE USA_R64_SE USA_R64_SW USA_R64_NW USA_POCI USA_ROCI USA_RMW USA_EYE TOKYO_LAT TOKYO_LON TOKYO_GRADE TOKYO_WIND TOKYO_PRES TOKYO_R50_DIR TOKYO_R50_LONG TOKYO_R50_SHORT TOKYO_R30_DIR TOKYO_R30_LONG TOKYO_R30_SHORT TOKYO_LAND CMA_LAT CMA_LON CMA_CAT CMA_WIND CMA_PRES HKO_LAT HKO_LON HKO_CAT HKO_WIND HKO_PRES NEWDELHI_LAT NEWDELHI_LON NEWDELHI_GRADE NEWDELHI_WIND NEWDELHI_PRES NEWDELHI_CI NEWDELHI_DP NEWDELHI_POCI REUNION_LAT REUNION_LON REUNION_TYPE REUNION_WIND REUNION_PRES REUNION_TNUM REUNION_CI REUNION_RMW REUNION_R34_NE REUNION_R34_SE REUNION_R34_SW REUNION_R34_NW REUNION_R50_NE REUNION_R50_SE REUNION_R50_SW REUNION_R50_NW REUNION_R64_NE REUNION_R64_SE REUNION_R64_SW REUNION_R64_NW BOM_LAT BOM_LON BOM_TYPE BOM_WIND BOM_PRES BOM_TNUM BOM_CI BOM_RMW BOM_R34_NE BOM_R34_SE BOM_R34_SW BOM_R34_NW BOM_R50_NE BOM_R50_SE BOM_R50_SW BOM_R50_NW BOM_R64_NE BOM_R64_SE BOM_R64_SW BOM_R64_NW BOM_ROCI BOM_POCI BOM_EYE BOM_POS_METHOD BOM_PRES_METHOD NADI_LAT NADI_LON NADI_CAT NADI_WIND NADI_PRES WELLINGTON_LAT WELLINGTON_LON WELLINGTON_WIND WELLINGTON_PRES DS824_LAT DS824_LON DS824_STAGE DS824_WIND DS824_PRES TD9636_LAT TD9636_LON TD9636_STAGE TD9636_WIND TD9636_PRES TD9635_LAT TD9635_LON TD9635_WIND TD9635_PRES TD9635_ROCI NEUMANN_LAT NEUMANN_LON NEUMANN_CLASS NEUMANN_WIND NEUMANN_PRES MLC_LAT MLC_LON MLC_CLASS MLC_WIND MLC_PRES USA_GUST BOM_GUST BOM_GUST_PER REUNION_GUST REUNION_GUST_PER USA_SEAHGT USA_SEARAD_NE USA_SEARAD_SE USA_SEARAD_SW USA_SEARAD_NW STORM_SPEED STORM_DIR
1958043S13139 1958 13 SP EA NOT_NAMED 1958-02-12 05:00:00 NR -13.0000 139.000 1002 bom main 230 230 ______O_______ -1 -13.0000 139.000 1002 3 263
1958043S13139 1958 13 SP EA NOT_NAMED 1958-02-12 06:00:00 TS -13.0045 138.953 main 230 210 ______P__O____ -1 -13.0067 138.930 -13.0000 139.000 TC 25 1002 3 261
1958043S13139 1958 13 SP EA NOT_NAMED 1958-02-12 09:00:00 TS -13.0370 138.765 main 210 200 ______P__P____ -1 -13.0318 138.730 -13.0449 138.817 TC 3 263
1958043S13139 1958 13 SP EA NOT_NAMED 1958-02-12 11:00:00 TS -13.0341 138.708 main 200 200 ______P__PO___ -1 -13.0575 138.612 -13.0809 138.706 TC -12.8000 139.100 1 1 0
1958043S13139 1958 13 SP EA NOT_NAMED 1958-02-12 12:00:00 TS -13.0216 138.743 main 200 195 O_____P__PP___ jtwc_sh SH151958 -12.9000 139.000 -1 -13.0745 138.561 -13.1020 138.657 TC -12.8761 139.021 1 2 224
1958043S13139 1958 13 SP EA NOT_NAMED 1958-02-12 15:00:00 TS -13.1327 138.608 main 195 181 P_____P__PP___ SH151958 -13.0876 138.690 -1 -13.1484 138.448 -13.1837 138.542 TC -13.1040 138.800 1 4 219
1958043S13139 1958 13 SP EA NOT_NAMED 1958-02-12 18:00:00 TS -13.2999 138.510 main 181 176 O_____P__PP___ jtwc_sh SH151958 -13.3000 138.500 -1 -13.2669 138.414 -13.3024 138.496 TC -13.3301 138.635 1 4 192
1958043S13139 1958 13 SP EA NOT_NAMED 1958-02-12 21:00:00 TS -13.5134 138.526 main 176 174 P_____P__PP___ SH151958 -13.5499 138.517 -1 -13.4435 138.484 -13.4704 138.541 TC -13.5533 138.568 1 5 164
1958043S13139 1958 13 SP EA NOT_NAMED 1958-02-12 23:00:00 TS -13.6711 138.617 1000 bom main 184 184 P_____O__PO___ SH151958 -13.7197 138.625 -1 -13.6000 138.600 1000 -13.6159 138.633 TC -13.7000 138.600 1 6 147
1958043S13139 1958 13 SP EA NOT_NAMED 1958-02-13 00:00:00 TS -13.7527 138.685 main 191 191 O_____P__OP___ jtwc_sh SH151958 -13.8000 138.700 -1 -13.6909 138.681 1000 -13.7000 138.700 TC 30 1000 -13.7726 138.643 1 7 135
1958043S13139 1958 13 SP EA NOT_NAMED 1958-02-13 03:00:00 TS -13.9952 138.956 main 218 216 P_____P__PP___ SH151958 -14.0001 138.978 -1 -13.9945 138.984 1000 -13.9918 138.978 TC 30 1000 -13.9895 138.861 1 7 131
1958043S13139 1958 13 SP EA NOT_NAMED 1958-02-13 05:00:00 TS -14.1590 139.169 1000 bom main 237 237 P_____O__PP___ SH151958 -14.1303 139.195 -1 -14.2000 139.200 1000 -14.1990 139.193 TC 30 1000 -14.1355 139.059 1 8 128
1958043S13139 1958 13 SP EA NOT_NAMED 1958-02-13 06:00:00 TS -14.2382 139.272 main 239 215 O_____P__OP___ jtwc_sh SH151958 -14.2000 139.300 -1 -14.2817 139.293 -14.3000 139.300 TC 30 1000 -14.2095 139.167 1 7 130
1958043S13139 1958 13 SP EA NOT_NAMED 1958-02-13 09:00:00 TS -14.4686 139.554 main 204 194 P_____P__PP___ SH151958 -14.4425 139.573 -1 -14.4924 139.556 -14.5269 139.571 TC -14.4388 139.497 1 7 131
1958043S13139 1958 13 SP EA NOT_NAMED 1958-02-13 11:00:00 TS -14.6194 139.724 main 194 184 P_____P__PO___ SH151958 -14.6140 139.731 -1 -14.6142 139.718 -14.6545 139.738 TC -14.6000 139.700 1 7 134
1958043S13139 1958 13 SP EA NOT_NAMED 1958-02-13 12:00:00 TS -14.6938 139.797 main 184 167 O_____P__PP___ jtwc_sh SH151958 -14.7000 139.800 -1 -14.6724 139.796 -14.7142 139.818 TC -14.6824 139.773 1 6 139
1958043S13139 1958 13 SP EA NOT_NAMED 1958-02-13 15:00:00 TS -14.9123 139.988 main 167 146 P_____P__PP___ SH151958 -14.9424 139.958 -1 -14.8483 140.013 -14.8885 140.043 TC -14.9398 139.971 1 6 142
1958043S13139 1958 13 SP EA NOT_NAMED 1958-02-13 18:00:00 TS -15.1471 140.160 main 146 129 O_____P__PP___ jtwc_sh SH151958 -15.2000 140.100 -1 -15.0467 140.211 -15.0764 140.247 TC -15.2123 140.143 1 6 146
1958043S13139 1958 13 SP EA NOT_NAMED 1958-02-13 21:00:00 TS -15.4168 140.344 main 129 102 P_____P__PP___ SH151958 -15.4925 140.300 -1 -15.2944 140.390 -15.3047 140.432 TC -15.4999 140.300 1 7 148
1958043S13139 1958 13 SP EA NOT_NAMED 1958-02-13 23:00:00 TS -15.6175 140.464 998 bom main 102 98 P_____O__PO___ SH151958 -15.6974 140.436 -1 -15.5000 140.500 998 -15.4925 140.546 TC -15.7000 140.400 1 7 152
1958043S13139 1958 13 SP EA NOT_NAMED 1958-02-14 00:00:00 TS -15.7265 140.520 main 98 72 O_____P__OP___ jtwc_sh SH151958 -15.8000 140.500 -1 -15.6262 140.552 997 -15.6000 140.600 TC 35 998 -15.8065 140.450 1 7 156
1958043S13139 1958 13 SP EA NOT_NAMED 1958-02-14 03:00:00 TS -16.0708 140.675 main 72 54 P_____P__PP___ SH151958 -16.0925 140.665 -1 -16.0315 140.700 996 -15.9985 140.751 TC 35 997 -16.1391 140.592 1 8 157
1958043S13139 1958 13 SP EA NOT_NAMED 1958-02-14 05:00:00 TS -16.3048 140.770 996 bom main 54 53 P_____O__PP___ SH151958 -16.2943 140.758 -1 -16.3000 140.800 996 -16.2705 140.849 TC 35 996 -16.3648 140.685 1 8 159
1958043S13139 1958 13 SP EA NOT_NAMED 1958-02-14 06:00:00 TS -16.4262 140.816 main 53 24 O_____P__OP___ jtwc_sh SH151958 -16.4000 140.800 -1 -16.4543 140.847 -16.4000 140.900 TC 35 996 -16.4768 140.733 1 8 164
1958043S13139 1958 13 SP EA NOT_NAMED 1958-02-14 09:00:00 TS -16.8209 140.930 main 24 0 P_____P__PP___ SH151958 -16.7575 140.893 -1 -16.9440 140.985 -16.8450 140.995 TC -16.8008 140.886 1 8 164
1958043S13139 1958 13 SP EA NOT_NAMED 1958-02-14 11:00:00 TS -17.0784 141.009 main 0 0 P_____P__PO___ SH151958 -16.9921 140.958 -1 -17.2681 141.082 -17.1398 141.050 TC -17.0000 141.000 1 8 164
1958043S13139 1958 13 SP EA NOT_NAMED 1958-02-14 12:00:00 TS -17.2055 141.050 main 0 0 O_____P__PP___ jtwc_sh SH151958 -17.1000 141.000 -1 -17.4220 141.133 -17.2804 141.079 TC -17.1249 141.037 1 8 159
1958043S13139 1958 13 SP EA NOT_NAMED 1958-02-14 15:00:00 TS -17.5450 141.195 main 0 0 P_____P__PP___ SH151958 -17.3799 141.163 -1 -17.8220 141.305 -17.6500 141.190 TC -17.4929 141.155 1 7 150
1958043S13139 1958 13 SP EA NOT_NAMED 1958-02-14 18:00:00 TS -17.7926 141.403 main 0 0 O_____P__PP___ jtwc_sh SH151958 -17.6000 141.400 -1 -18.0772 141.517 -17.8975 141.370 TC -17.7882 141.327 1 6 132
1958043S13139 1958 13 SP EA NOT_NAMED 1958-02-14 21:00:00 TS -17.9604 141.678 main 0 0 P_____P__PP___ SH151958 -17.8921 141.666 -1 -18.1211 141.784 -17.9665 141.660 TC -17.9303 141.614 1 6 106
1958043S13139 1958 13 SP EA NOT_NAMED 1958-02-14 23:00:00 TS -17.9378 141.939 1003 bom main 0 0 P_____O__PO___ SH151958 -17.9520 141.929 -1 -18.0000 142.000 1003 -17.8852 141.935 TC -17.9000 141.900 1 8 75
1958043S13139 1958 13 SP EA NOT_NAMED 1958-02-15 00:00:00 TS -17.8539 142.085 main 0 0 O_____P__OP___ jtwc_sh SH151958 -17.9000 142.100 -1 -17.8888 142.034 1002 -17.8000 142.100 TC 25 1003 -17.7807 142.092 1 14 47
1958043S13139 1958 13 SP EA NOT_NAMED 1958-02-15 03:00:00 TS -17.3079 142.648 main 0 0 P_____P__PP___ SH151958 -17.2677 142.784 -1 -17.4061 142.298 1001 -17.3600 142.582 TC 27 1001 -17.2382 142.790 1 17 46
1958043S13139 1958 13 SP EA NOT_NAMED 1958-02-15 05:00:00 TS -16.8509 143.170 1000 bom main 0 0 P_____O__PP___ SH151958 -16.7323 143.324 -1 -17.0000 142.800 1000 -16.9903 143.075 TC 29 1000 -16.7998 143.326 1 21 50
1958043S13139 1958 13 SP EA NOT_NAMED 1958-02-15 06:00:00 TS -16.6273 143.493 main 0 0 O_____P__OP___ jtwc_sh SH151958 -16.5000 143.600 -1 -16.7554 143.259 1000 -16.8000 143.400 TC 30 1000 -16.5809 143.605 1 24 60
1958043S13139 1958 13 SP EA NOT_NAMED 1958-02-15 09:00:00 TS -16.0449 144.625 main 0 0 P_____P__PP___ SH151958 -16.0274 144.400 -1 -15.9828 145.046 1000 -16.1687 144.825 TC 30 1000 -16.0184 144.454 1 24 66
1958043S13139 1958 13 SP EA NOT_NAMED 1958-02-15 11:00:00 TS -15.8008 145.384 1001 bom main 10 10 P_____O__PO___ SH151958 -15.8933 144.937 -1 -15.6000 146.200 1001 -15.8176 145.847 TC 30 1000 -15.8000 145.000 1 22 75
1958043S13139 1958 13 SP EA NOT_NAMED 1958-02-15 12:00:00 TS -15.7715 145.705 main 33 33 O_____P__OP___ jtwc_sh SH151958 -15.9000 145.200 -1 -15.5371 146.572 1000 -15.7000 146.300 TC 30 1001 -15.8203 145.255 1 16 101
1958043S13139 1958 13 SP EA NOT_NAMED 1958-02-15 15:00:00 TS -16.0069 146.481 main 107 107 P_____P__PP___ SH151958 -16.2525 145.986 -1 -15.6896 147.304 1000 -15.7502 147.120 TC 30 1000 -16.0900 146.006 1 15 119
1958043S13139 1958 13 SP EA NOT_NAMED 1958-02-15 18:00:00 TS -16.5018 147.058 main 139 135 O_____P__PP___ jtwc_sh SH151958 -16.8000 146.700 -1 -16.1882 147.625 1000 -16.1602 147.551 TC 30 1000 -16.5606 146.714 1 14 136
1958043S13139 1958 13 SP EA NOT_NAMED 1958-02-15 21:00:00 TS -17.0069 147.492 main 155 152 P_____P__PP___ SH151958 -17.1948 147.310 -1 -16.8166 147.739 1000 -16.7405 147.757 TC 30 1000 -17.0879 147.343 1 12 142
1958043S13139 1958 13 SP EA NOT_NAMED 1958-02-15 23:00:00 TS -17.3101 147.730 1000 bom main 170 170 P_____O__PO___ SH151958 -17.4113 147.650 -1 -17.2000 147.800 1000 -17.1277 147.849 TC 30 1000 -17.4000 147.700 1 11 140
1958043S13139 1958 13 SP EA NOT_NAMED 1958-02-16 00:00:00 TS -17.4138 147.854 main 191 190 O_____P__OP___ jtwc_sh SH151958 -17.5000 147.800 -1 -17.2872 147.916 999 -17.3000 147.900 TC 30 1000 -17.4818 147.855 1 8 123
1958043S13139 1958 13 SP EA NOT_NAMED 1958-02-16 03:00:00 TS -17.6136 148.223 main 218 212 P_____P__PP___ SH151958 -17.6723 148.195 -1 -17.5023 148.244 999 -17.5450 148.242 TC 31 999 -17.6758 148.237 1 7 119
1958043S13139 1958 13 SP EA NOT_NAMED 1958-02-16 06:00:00 TS -17.7686 148.524 main 213 213 O_____P__PP___ jtwc_sh SH151958 -17.8000 148.500 -1 -17.6794 148.544 998 -17.7372 148.554 TC 32 999 -17.8266 148.525 1 6 121
1958043S13139 1958 13 SP EA NOT_NAMED 1958-02-16 09:00:00 TS -17.9375 148.793 main 223 214 P_____P__PP___ SH151958 -17.9699 148.773 -1 -17.8589 148.823 998 -17.9107 148.839 TC 33 998 -17.9778 148.757 1 6 127
1958043S13139 1958 13 SP EA NOT_NAMED 1958-02-16 11:00:00 TS -18.0720 148.954 998 bom main 222 222 P_____O__PO___ SH151958 -18.1136 148.928 -1 -18.0000 149.000 998 -18.0331 149.015 TC 34 998 -18.1000 148.900 1 7 135
1958043S13139 1958 13 SP EA NOT_NAMED 1958-02-16 12:00:00 TS -18.1645 149.036 main 214 192 O_____P__OP___ jtwc_sh SH151958 -18.2000 149.000 -1 -18.1174 149.102 998 -18.1000 149.100 TC 35 998 -18.2052 148.980 1 8 146
1958043S13139 1958 13 SP EA NOT_NAMED 1958-02-16 15:00:00 TS -18.5192 149.275 main 197 172 P_____P__PP___ SH151958 -18.5499 149.200 -1 -18.5080 149.402 998 -18.4306 149.370 TC 35 998 -18.5578 149.201 1 8 148
1958043S13139 1958 13 SP EA NOT_NAMED 1958-02-16 18:00:00 TS -18.8745 149.501 main 172 158 O_____P__PP___ jtwc_sh SH151958 -18.9000 149.400 -1 -18.8927 149.675 998 -18.7700 149.617 TC 35 998 -18.9098 149.412 1 8 146
1958043S13139 1958 13 SP EA NOT_NAMED 1958-02-16 21:00:00 TS -19.1558 149.726 main 154 154 P_____P__PP___ SH151958 -19.1750 149.635 -1 -19.1902 149.895 998 -19.0494 149.830 TC 35 998 -19.1894 149.634 1 6 138
1958043S13139 1958 13 SP EA NOT_NAMED 1958-02-16 23:00:00 TS -19.2661 149.873 998 bom main 160 160 P_____O__PO___ SH151958 -19.2811 149.808 -1 -19.3000 150.000 998 -19.1683 149.949 TC 35 998 -19.3000 149.800 1 5 123
1958043S13139 1958 13 SP EA NOT_NAMED 1958-02-17 00:00:00 TS -19.2817 149.937 main 160 160 O_____P__OP___ jtwc_sh SH151958 -19.3000 149.900 -1 -19.3058 149.997 998 -19.2000 150.000 TC 35 998 -19.3029 149.889 1 3 71
1958043S13139 1958 13 SP EA NOT_NAMED 1958-02-17 03:00:00 TS -19.1933 150.099 main 183 183 P_____P__PP___ SH151958 -19.2024 150.185 -1 -19.2085 149.915 998 -19.1438 150.032 TC 35 998 -19.2093 150.176 1 4 47
1958043S13139 1958 13 SP EA NOT_NAMED 1958-02-17 06:00:00 TS -18.9926 150.271 main 214 214 O_____P__PP___ jtwc_sh SH151958 -19.0000 150.500 -1 -18.9860 149.826 998 -18.9560 150.037 TC 35 998 -19.0209 150.494 1 6 40
1958043S13139 1958 13 SP EA NOT_NAMED 1958-02-17 09:00:00 TS -18.7711 150.478 main 244 244 P_____P__PP___ SH151958 -18.8271 150.798 -1 -18.6983 149.854 998 -18.6902 150.098 TC 35 998 -18.8127 150.845 1 6 47
1958043S13139 1958 13 SP EA NOT_NAMED 1958-02-17 11:00:00 TS -18.6323 150.681 998 bom main 275 275 P_____O__PO___ SH151958 -18.7326 151.047 -1 -18.5000 150.000 998 -18.4962 150.212 TC 35 998 -18.7000 151.100 1 8 62
1958043S13139 1958 13 SP EA NOT_NAMED 1958-02-17 12:00:00 TS -18.5892 150.842 main 283 283 O_____P__OP___ jtwc_sh SH151958 -18.7000 151.200 -1 -18.4336 150.229 998 -18.4000 150.300 TC 35 998 -18.7123 151.279 1 12 82
1958043S13139 1958 13 SP EA NOT_NAMED 1958-02-17 15:00:00 TS -18.5159 151.542 main 347 347 P_____P__PP___ SH151958 -18.6857 151.880 -1 -18.2257 151.115 998 -18.1873 150.975 TC 33 998 -18.7950 151.862 1 13 84
1958043S13139 1958 13 SP EA NOT_NAMED 1958-02-17 18:00:00 TS -18.4428 152.248 main 415 415 O_____P__PP___ jtwc_sh SH151958 -18.7000 152.500 -1 -17.9903 152.067 999 -17.9554 151.760 TC 32 999 -18.8683 152.413 1 11 82
1958043S13139 1958 13 SP EA NOT_NAMED 1958-02-17 21:00:00 TS -18.3560 152.727 main 461 461 P_____P__PP___ SH151958 -18.7694 152.816 -1 -17.7131 152.790 999 -17.6951 152.414 TC 31 999 -18.8328 152.799 1 7 69
1958043S13139 1958 13 SP EA NOT_NAMED 1958-02-17 23:00:00 TS -18.2224 152.850 1000 bom main 490 481 P_____O__PO___ SH151958 -18.7047 152.845 -1 -17.5000 153.000 1000 -17.5026 152.660 TC 30 999 -18.7000 152.900 1 5 17
1958043S13139 1958 13 SP EA NOT_NAMED 1958-02-18 00:00:00 TS -18.0966 152.811 main 486 483 O_____P__OP___ jtwc_sh SH151958 -18.6000 152.800 -1 -17.3520 152.892 1000 -17.4000 152.700 TC 30 1000 -18.5312 152.862 1 13 328
1958043S13139 1958 13 SP EA NOT_NAMED 1958-02-18 03:00:00 TS -17.4838 152.368 main 491 490 P_____P__PP___ SH151958 -17.8602 152.446 -1 -16.8579 152.201 1000 -16.9749 152.205 TC 30 1000 -17.8657 152.542 1 17 320
1958043S13139 1958 13 SP EA NOT_NAMED 1958-02-18 06:00:00 TS -16.7984 151.671 main 496 490 O_____P__PP___ jtwc_sh SH151958 -17.0000 151.900 -1 -16.3622 151.192 1000 -16.5282 151.352 TC 30 1000 -17.1015 152.013 1 18 312
1958043S13139 1958 13 SP EA NOT_NAMED 1958-02-18 09:00:00 TS -16.2707 150.951 main 502 490 P_____P__PP___ SH151958 -16.4150 151.400 -1 -15.9625 150.159 1000 -16.1414 150.399 TC 30 1000 -16.4194 151.398 1 16 304
1958043S13139 1958 13 SP EA NOT_NAMED 1958-02-18 11:00:00 TS -16.0393 150.512 1000 bom main 494 484 P_____O__PO___ SH151958 -16.1688 151.064 -1 -15.8000 149.600 1000 -15.9589 149.834 TC 30 1000 -16.1000 151.000 1 13 296
1958043S13139 1958 13 SP EA NOT_NAMED 1958-02-18 12:00:00 TS -15.9845 150.338 main 474 444 O_____P__OP___ jtwc_sh SH151958 -16.1000 150.900 -1 -15.7869 149.459 999 -15.9000 149.600 TC 30 1000 -16.0354 150.833 1 8 274
1958043S13139 1958 13 SP EA NOT_NAMED 1958-02-18 15:00:00 TS -16.0025 149.937 main 434 396 P_____P__PP___ SH151958 -16.0949 150.435 -1 -15.8885 149.195 999 -15.9192 149.284 TC 31 999 -16.0150 150.334 1 7 252
1958043S13139 1958 13 SP EA NOT_NAMED 1958-02-18 18:00:00 TS -16.2025 149.628 main 396 368 O_____P__PP___ jtwc_sh SH151958 -16.3000 150.000 -1 -16.1311 149.115 998 -16.0906 149.155 TC 32 999 -16.1910 149.871 1 7 230
1958043S13139 1958 13 SP EA NOT_NAMED 1958-02-18 21:00:00 TS -16.4574 149.370 main 365 351 P_____P__PP___ SH151958 -16.5201 149.533 -1 -16.4231 149.149 998 -16.3417 149.148 TC 33 998 -16.4820 149.488 1 7 219
1958043S13139 1958 13 SP EA NOT_NAMED 1958-02-18 23:00:00 TS -16.6448 149.250 998 bom main 351 338 P_____O__PO___ SH151958 -16.7031 149.285 -1 -16.6000 149.200 998 -16.5176 149.180 TC 34 998 -16.7000 149.300 1 6 209
1958043S13139 1958 13 SP EA NOT_NAMED 1958-02-19 00:00:00 TS -16.7206 149.214 main 338 334 O_____P__OP___ jtwc_sh SH151958 -16.8000 149.200 -1 -16.6246 149.223 997 -16.6000 149.200 TC 35 998 -16.7784 149.249 1 4 188
1958043S13139 1958 13 SP EA NOT_NAMED 1958-02-19 03:00:00 TS -16.9189 149.219 main 334 326 P_____P__PP___ SH151958 -17.0924 149.147 -1 -16.6670 149.341 996 -16.6961 149.271 TC 36 997 -17.0464 149.188 1 4 171
1958043S13139 1958 13 SP EA NOT_NAMED 1958-02-19 06:00:00 TS -17.1325 149.290 main 326 300 O_____P__PP___ jtwc_sh SH151958 -17.4000 149.200 -1 -16.7161 149.470 995 -16.7947 149.373 TC 37 996 -17.3516 149.206 1 5 169
1958043S13139 1958 13 SP EA NOT_NAMED 1958-02-19 09:00:00 TS -17.3700 149.314 main 300 292 P_____P__PP___ SH151958 -17.6924 149.187 -1 -16.8408 149.533 994 -16.9460 149.439 TC 38 995 -17.6782 149.225 1 5 183
1958043S13139 1958 13 SP EA NOT_NAMED 1958-02-19 11:00:00 TS -17.5579 149.283 994 bom main 284 268 P_____O__PO___ SH151958 -17.8943 149.142 -1 -17.0000 149.500 994 -17.1008 149.429 TC 39 994 -17.9000 149.200 1 6 195
1958043S13139 1958 13 SP EA NOT_NAMED 1958-02-19 12:00:00 TS -17.6708 149.234 main 268 222 O_____P__OP___ jtwc_sh SH151958 -18.0000 149.100 -1 -17.1405 149.424 994 -17.2000 149.400 TC 40 994 -18.0137 149.146 1 9 209
1958043S13139 1958 13 SP EA NOT_NAMED 1958-02-19 15:00:00 TS -18.0822 148.983 main 222 168 P_____P__PP___ SH151958 -18.3501 148.880 -1 -17.6682 149.091 994 -17.6788 149.131 TC 40 994 -18.3637 148.933 1 10 213
1958043S13139 1958 13 SP EA NOT_NAMED 1958-02-19 18:00:00 TS -18.5272 148.659 main 168 115 O_____P__PP___ jtwc_sh SH151958 -18.7000 148.600 -1 -18.2771 148.668 994 -18.2512 148.756 TC 40 994 -18.7078 148.669 1 11 215
1958043S13139 1958 13 SP EA NOT_NAMED 1958-02-19 21:00:00 TS -18.9511 148.333 main 100 71 P_____P__PP___ SH151958 -19.0225 148.342 -1 -18.8668 148.242 994 -18.8228 148.353 TC 40 994 -19.0208 148.385 1 10 217
1958043S13139 1958 13 SP EA NOT_NAMED 1958-02-19 23:00:00 TS -19.1970 148.132 994 bom main 71 64 P_____O__PO___ SH151958 -19.2140 148.178 -1 -19.2000 148.000 994 -19.1572 148.107 TC 40 994 -19.2000 148.200 1 9 218
1958043S13139 1958 13 SP EA NOT_NAMED 1958-02-20 00:00:00 TS -19.3043 148.046 main 57 22 O_____P__OP___ jtwc_sh SH151958 -19.3000 148.100 -1 -19.3319 147.918 994 -19.3000 148.000 TC 40 994 -19.2895 148.112 1 7 217
1958043S13139 1958 13 SP EA NOT_NAMED 1958-02-20 03:00:00 TS -19.5730 147.831 main 22 10 P_____P__PP___ SH151958 -19.5374 147.900 -1 -19.6582 147.726 994 -19.6061 147.781 TC 40 994 -19.5260 147.849 1 6 220
1958043S13139 1958 13 SP EA NOT_NAMED 1958-02-20 06:00:00 TS -19.7561 147.647 main 0 0 O_____P__PP___ jtwc_sh SH151958 -19.7000 147.700 -1 -19.8783 147.601 994 -19.8020 147.629 TC 40 994 -19.7000 147.605 1 4 230
1958043S13139 1958 13 SP EA NOT_NAMED 1958-02-20 09:00:00 TS -19.8597 147.467 main 0 0 P_____P__PP___ SH151958 -19.8101 147.435 -1 -19.9888 147.528 994 -19.8969 147.537 TC 40 994 -19.7927 147.402 1 3 247
1958043S13139 1958 13 SP EA NOT_NAMED 1958-02-20 11:00:00 TS -19.8696 147.369 995 bom main 0 0 P_____O__PO___ SH151958 -19.8198 147.269 -1 -20.0000 147.500 995 -19.9086 147.507 TC 40 994 -19.8000 147.300 1 3 273
1958043S13139 1958 13 SP EA NOT_NAMED 1958-02-20 12:00:00 TS -19.8517 147.320 main 0 0 O_____P__OP___ jtwc_sh SH151958 -19.8000 147.200 -1 -19.9819 147.458 995 -19.9000 147.500 TC 40 995 -19.7765 147.244 1 3 315
1958043S13139 1958 13 SP EA NOT_NAMED 1958-02-20 15:00:00 TS -19.7078 147.195 main 0 0 P_____P__PP___ SH151958 -19.6299 147.040 -1 -19.8410 147.351 995 -19.8073 147.435 TC 40 995 -19.6308 147.111 1 4 337
1958043S13139 1958 13 SP EA NOT_NAMED 1958-02-20 18:00:00 TS -19.4968 147.158 main 0 0 O_____P__PP___ jtwc_sh SH151958 -19.4000 147.000 -1 -19.6262 147.307 995 -19.6367 147.427 TC 40 995 -19.4211 147.053 1 4 6
1958043S13139 1958 13 SP EA NOT_NAMED 1958-02-20 21:00:00 TS -19.3045 147.226 main 20 15 P_____P__PP___ SH151958 -19.2274 147.075 -1 -19.4097 147.373 995 -19.4477 147.507 TC 40 995 -19.2103 147.099 1 4 31
1958043S13139 1958 13 SP EA NOT_NAMED 1958-02-20 23:00:00 TS -19.2025 147.348 995 bom main 24 22 P_____O__PO___ SH151958 -19.1359 147.208 -1 -19.3000 147.500 995 -19.3410 147.621 TC 40 995 -19.1000 147.200 1 5 57
1958043S13139 1958 13 SP EA NOT_NAMED 1958-02-21 00:00:00 TS -19.1703 147.440 main 22 22 O_____P__OP___ jtwc_sh SH151958 -19.1000 147.300 -1 -19.2821 147.618 995 -19.3000 147.700 TC 40 995 -19.0694 147.284 1 7 80
1958043S13139 1958 13 SP EA NOT_NAMED 1958-02-21 03:00:00 TS -19.1203 147.827 main 53 53 P_____P__PP___ SH151958 -19.0201 147.663 -1 -19.2722 148.090 995 -19.2760 148.088 TC 38 995 -19.0131 147.632 1 8 87
1958043S13139 1958 13 SP EA NOT_NAMED 1958-02-21 06:00:00 TS -19.1228 148.300 main 94 94 O_____P__PP___ jtwc_sh SH151958 -19.0000 148.100 -1 -19.3078 148.653 996 -19.2994 148.577 TC 37 996 -19.0071 148.069 1 9 92
1958043S13139 1958 13 SP EA NOT_NAMED 1958-02-21 09:00:00 TS -19.1569 148.769 main 103 103 P_____P__PP___ SH151958 -19.0125 148.523 -1 -19.3635 149.200 997 -19.3479 149.078 TC 36 997 -19.0480 148.523 1 9 96
1958043S13139 1958 13 SP EA NOT_NAMED 1958-02-21 11:00:00 TS -19.2011 149.048 998 bom main 115 115 P_____O__PO___ SH151958 -19.0610 148.784 -1 -19.4000 149.500 998 -19.3835 149.374 TC 35 997 -19.1000 148.800 1 8 101
1958043S13139 1958 13 SP EA NOT_NAMED 1958-02-21 12:00:00 TS -19.2270 149.161 main 128 118 O_____P__OP___ jtwc_sh SH151958 -19.1000 148.900 -1 -19.4031 149.598 998 -19.4000 149.500 TC 35 998 -19.1322 148.905 1 6 111
1958043S13139 1958 13 SP EA NOT_NAMED 1958-02-21 15:00:00 TS -19.3333 149.416 main 128 124 P_____P__PP___ SH151958 -19.2924 149.172 -1 -19.4107 149.812 998 -19.4081 149.735 TC 35 998 -19.2630 149.186 1 5 118
1958043S13139 1958 13 SP EA NOT_NAMED 1958-02-21 18:00:00 TS -19.4541 149.608 main 122 122 O_____P__PP___ jtwc_sh SH151958 -19.5000 149.400 -1 -19.4256 149.931 998 -19.4193 149.878 TC 35 998 -19.4257 149.431 1 4 121
1958043S13139 1958 13 SP EA NOT_NAMED 1958-02-21 21:00:00 TS -19.5433 149.782 main 137 130 P_____P__PP___ SH151958 -19.6075 149.658 -1 -19.4602 149.985 998 -19.4458 149.957 TC 35 998 -19.5955 149.655 1 4 119
1958043S13139 1958 13 SP EA NOT_NAMED 1958-02-21 23:00:00 TS -19.6021 149.887 998 bom main 139 139 P_____O__PO___ SH151958 -19.6662 149.822 -1 -19.5000 150.000 998 -19.4781 149.988 TC 35 998 -19.7000 149.800 1 3 123
1958043S13139 1958 13 SP EA NOT_NAMED 1958-02-22 00:00:00 TS -19.6361 149.936 main 139 137 O_____P__OP___ jtwc_sh SH151958 -19.7000 149.900 -1 -19.5343 149.998 998 -19.5000 150.000 TC 35 998 -19.7461 149.880 1 3 137
1958043S13139 1958 13 SP EA NOT_NAMED 1958-02-22 03:00:00 TS -19.7730 150.052 main 146 142 P_____P__PP___ SH151958 -19.8574 150.100 -1 -19.6618 149.958 998 -19.6121 149.989 TC 35 998 -19.8762 150.113 1 3 142
1958043S13139 1958 13 SP EA NOT_NAMED 1958-02-22 06:00:00 TS -19.9080 150.163 main 151 146 O_____P__PP___ jtwc_sh SH151958 -20.0000 150.300 -1 -19.8045 149.914 998 -19.7493 149.960 TC 35 998 -19.9863 150.340 1 3 134
1958043S13139 1958 13 SP EA NOT_NAMED 1958-02-22 09:00:00 TS -20.0097 150.315 main 156 156 P_____P__PP___ SH151958 -20.0800 150.558 -1 -19.9343 149.928 998 -19.8868 149.976 TC 35 998 -20.0671 150.558 1 4 119
1958043S13139 1958 13 SP EA NOT_NAMED 1958-02-22 11:00:00 TS -20.0533 150.439 998 bom main 162 162 P_____O__PO___ SH151958 -20.1000 150.725 -1 -20.0000 150.000 998 -19.9665 150.043 TC 35 998 -20.1000 150.700 1 4 106
1958043S13139 1958 13 SP EA NOT_NAMED 1958-02-22 12:00:00 TS -20.0602 150.498 main 172 172 O_____P__OP___ jtwc_sh SH151958 -20.1000 150.800 -1 -20.0041 150.051 998 -20.0000 150.100 TC 35 998 -20.0969 150.741 1 3 85
1958043S13139 1958 13 SP EA NOT_NAMED 1958-02-22 15:00:00 TS -20.0356 150.673 main 195 195 P_____P__PP___ SH151958 -20.0574 150.950 -1 -19.9835 150.275 999 -20.0243 150.342 TC 32 999 -20.0553 150.846 1 4 80
1958043S13139 1958 13 SP EA NOT_NAMED 1958-02-22 18:00:00 TS -19.9954 150.902 main 215 215 O_____P__PP___ jtwc_sh SH151958 -20.0000 151.100 -1 -19.9511 150.619 1000 -20.0257 150.705 TC 30 1000 -20.0003 150.984 1 5 83
1958043S13139 1958 13 SP EA NOT_NAMED 1958-02-22 21:00:00 TS -19.9758 151.205 main 241 241 P_____P__PP___ SH151958 -19.9544 151.253 -1 -19.9545 151.098 1001 -20.0393 151.190 TC 27 1001 -19.9766 151.234 1 7 91
1958043S13139 1958 13 SP EA NOT_NAMED 1958-02-22 23:00:00 TS -20.0018 151.496 1002 bom main 269 269 P_____O__PO___ SH151958 -19.9684 151.449 -1 -20.0000 151.500 1002 -20.0724 151.582 TC 25 1001 -20.0000 151.500 1 9 99
1958043S13139 1958 13 SP EA NOT_NAMED 1958-02-23 00:00:00 TS -20.0447 151.685 main 287 277 O_____P__OP___ jtwc_sh SH151958 -20.0000 151.600 -1 -20.0704 151.734 1002 -20.1000 151.800 TC 25 1002 -20.0533 151.691 1 14 107
1958043S13139 1958 13 SP EA NOT_NAMED 1958-02-23 03:00:00 TS -20.2756 152.427 main 293 293 P_____P__PP___ SH151958 -20.2279 152.309 -1 -20.3444 152.553 1002 -20.3089 152.565 TC 23 1002 -20.2689 152.400 1 16 108
1958043S13139 1958 13 SP EA NOT_NAMED 1958-02-23 06:00:00 TS -20.5436 153.312 main 341 341 O_____P__PP___ jtwc_sh SH151958 -20.5000 153.200 -1 -20.6482 153.475 1003 -20.5559 153.443 TC 22 1003 -20.5137 153.243 1 17 106
1958043S13139 1958 13 SP EA NOT_NAMED 1958-02-23 09:00:00 TS -20.7597 154.201 main 399 399 P_____P__PP___ SH151958 -20.7024 154.057 -1 -20.9002 154.413 1003 -20.7745 154.350 TC 21 1003 -20.7187 154.130 1 17 103
1958043S13139 1958 13 SP EA NOT_NAMED 1958-02-23 11:00:00 TS -20.8480 154.776 1004 bom main 454 450 P_____O__PO___ SH151958 -20.7837 154.625 -1 -21.0000 155.000 1004 -20.8725 154.928 TC 20 1003 -20.8000 154.700 1 16 98
1958043S13139 1958 13 SP EA NOT_NAMED 1958-02-23 12:00:00 TS -20.8641 155.046 main 469 469 O_____P__OP___ jtwc_sh SH151958 -20.8000 154.900 -1 -21.0114 155.266 1004 -20.9000 155.200 TC 20 1004 -20.8092 154.962 1 15 89
1958043S13139 1958 13 SP EA NOT_NAMED 1958-02-23 15:00:00 TS -20.8242 155.810 main 515 515 P_____P__PP___ SH151958 -20.7522 155.688 -1 -20.9615 156.019 1005 -20.8862 155.928 TC 18 1005 -20.7686 155.728 1 14 82
1958043S13139 1958 13 SP EA NOT_NAMED 1958-02-23 18:00:00 TS -20.6813 156.496 main 563 563 O_____P__PP___ jtwc_sh SH151958 -20.6000 156.400 -1 -20.8081 156.695 1006 -20.7558 156.547 TC 17 1006 -20.6424 156.437 1 13 74
1958043S13139 1958 13 SP EA NOT_NAMED 1958-02-23 21:00:00 TS -20.4815 157.112 main 618 618 P_____P__PP___ SH151958 -20.4224 157.068 -1 -20.5797 157.275 1007 -20.5476 157.092 TC 16 1007 -20.4519 157.055 1 12 68
1958043S13139 1958 13 SP EA NOT_NAMED 1958-02-23 23:00:00 TS -20.3217 157.467 1008 bom main 662 662 P_____O__PO___ SH151958 -20.2776 157.442 -1 -20.4000 157.600 1008 -20.3846 157.433 TC 15 1007 -20.3000 157.400 1 11 63
1958043S13139 1958 13 SP EA NOT_NAMED 1958-02-24 00:00:00 TS -20.2392 157.624 main 667 627 O_____P__OP___ jtwc_sh SH151958 -20.2000 157.600 -1 -20.3050 157.743 -20.3000 157.600 TC 15 1008 -20.2365 157.559 1 9 56
1958043S13139 1958 13 SP EA NOT_NAMED 1958-02-24 03:00:00 TS -19.9875 157.996 main 627 608 P_____P___P___ SH151958 -19.9647 157.967 -1 -20.0034 158.096 TC -20.0173 157.953 1 8 48
1958043S13139 1958 13 SP EA NOT_NAMED 1958-02-24 06:00:00 TS -19.7081 158.246 main 609 592 O_____P___P___ jtwc_sh SH151958 -19.7000 158.200 -1 -19.6801 158.347 TC -19.7525 158.235 1 7 35
1958043S13139 1958 13 SP EA NOT_NAMED 1958-02-24 09:00:00 TS -19.4092 158.427 main 594 586 P_____P___P___ SH151958 -19.4299 158.387 -1 -19.3385 158.513 TC -19.4385 158.421 1 7 25
1958043S13139 1958 13 SP EA NOT_NAMED 1958-02-24 11:00:00 TS -19.1854 158.505 main 588 588 P_____P___O___ SH151958 -19.2197 158.469 -1 -19.1023 158.583 TC -19.2000 158.500 1 7 17
1958043S13139 1958 13 SP EA NOT_NAMED 1958-02-24 12:00:00 TS -19.0582 158.539 main 591 583 O_____P___P___ jtwc_sh SH151958 -19.1000 158.500 -1 -18.9821 158.608 -19.0717 158.527 1 8 8
1958043S13139 1958 13 SP EA NOT_NAMED 1958-02-24 15:00:00 TS -18.6488 158.593 main 597 597 P_____P___P___ SH151958 -18.6775 158.563 -1 -18.6140 158.648 -18.6548 158.569 1 9 4
1958043S13139 1958 13 SP EA NOT_NAMED 1958-02-24 18:00:00 TS -18.2144 158.604 main 613 613 O_____P___P___ jtwc_sh SH151958 -18.2000 158.600 -1 -18.2376 158.648 -18.2010 158.564 1 9 0
1958043S13139 1958 13 SP EA NOT_NAMED 1958-02-24 21:00:00 NR -17.7899 158.576 main 632 632 ______P___P___ SH151958 -1 -17.8558 158.623 -17.7240 158.530 1 9 356
1958043S13139 1958 13 SP EA NOT_NAMED 1958-02-24 23:00:00 NR -17.5000 158.550 1008 bom main 648 ______O___O___ SH151958 -1 -17.6000 158.600 1008 -17.4000 158.500 1 9 356

Digital Typhoon Data and Search

About IBTrACS Database

This database is a web-friendly format of International Best Track Archive for Climate Stewardship (IBTrACS), a global best track data archive curated by NOAA dating back to 1842.

Updated: 2021-10-08